sensor_id;sensor_type;location;lat;lon;timestamp;P1;durP1;ratioP1;P2;durP2;ratioP2
37873;SDS011;23709;48.078;11.684;2022-12-08T06:05:35;61.13;;;24.08;;
37873;SDS011;23709;48.078;11.684;2022-12-08T06:08:07;71.18;;;28.77;;
37873;SDS011;23709;48.078;11.684;2022-12-08T06:10:40;57.67;;;24.75;;
37873;SDS011;23709;48.078;11.684;2022-12-08T06:13:14;59.83;;;26.38;;
37873;SDS011;23709;48.078;11.684;2022-12-08T06:15:46;56.85;;;24.73;;
37873;SDS011;23709;48.078;11.684;2022-12-08T06:18:18;61.83;;;25.52;;
37873;SDS011;23709;48.078;11.684;2022-12-08T06:20:50;53.42;;;23.13;;
37873;SDS011;23709;48.078;11.684;2022-12-08T06:23:22;56.10;;;23.80;;
37873;SDS011;23709;48.078;11.684;2022-12-08T06:25:54;47.17;;;20.77;;
37873;SDS011;23709;48.078;11.684;2022-12-08T06:28:26;67.38;;;24.45;;
37873;SDS011;23709;48.078;11.684;2022-12-08T06:30:59;52.35;;;23.13;;
37873;SDS011;23709;48.078;11.684;2022-12-08T06:33:45;57.83;;;24.15;;
37873;SDS011;23709;48.078;11.684;2022-12-08T06:36:19;56.33;;;22.50;;
37873;SDS011;23709;48.078;11.684;2022-12-08T06:38:53;46.22;;;20.98;;
37873;SDS011;23709;48.078;11.684;2022-12-08T06:41:25;47.13;;;21.77;;
37873;SDS011;23709;48.078;11.684;2022-12-08T06:43:57;58.50;;;23.90;;
37873;SDS011;23709;48.078;11.684;2022-12-08T06:46:30;60.85;;;25.08;;
37873;SDS011;23709;48.078;11.684;2022-12-08T06:49:02;53.75;;;23.30;;
37873;SDS011;23709;48.078;11.684;2022-12-08T06:51:34;42.97;;;20.70;;
37873;SDS011;23709;48.078;11.684;2022-12-08T06:54:06;53.50;;;22.35;;
37873;SDS011;23709;48.078;11.684;2022-12-08T06:56:39;48.78;;;21.80;;
37873;SDS011;23709;48.078;11.684;2022-12-08T06:59:11;54.95;;;23.85;;
37873;SDS011;23709;48.078;11.684;2022-12-08T07:01:44;48.17;;;22.40;;
37873;SDS011;23709;48.078;11.684;2022-12-08T07:04:17;48.70;;;21.30;;
37873;SDS011;23709;48.078;11.684;2022-12-08T07:06:50;54.60;;;24.57;;
37873;SDS011;23709;48.078;11.684;2022-12-08T07:09:22;55.97;;;25.08;;
37873;SDS011;23709;48.078;11.684;2022-12-08T07:11:54;44.13;;;21.73;;
37873;SDS011;23709;48.078;11.684;2022-12-08T07:14:26;48.50;;;20.55;;
37873;SDS011;23709;48.078;11.684;2022-12-08T07:16:58;51.75;;;22.00;;
37873;SDS011;23709;48.078;11.684;2022-12-08T07:19:31;42.20;;;19.55;;
37873;SDS011;23709;48.078;11.684;2022-12-08T07:22:03;48.63;;;21.50;;
37873;SDS011;23709;48.078;11.684;2022-12-08T07:24:35;48.28;;;21.67;;
37873;SDS011;23709;48.078;11.684;2022-12-08T07:27:07;38.00;;;17.95;;
37873;SDS011;23709;48.078;11.684;2022-12-08T07:29:39;45.53;;;20.17;;
37873;SDS011;23709;48.078;11.684;2022-12-08T14:57:53;48.55;;;23.15;;
37873;SDS011;23709;48.078;11.684;2022-12-08T15:00:25;47.88;;;22.17;;
37873;SDS011;23709;48.078;11.684;2022-12-08T15:03:03;51.77;;;23.20;;
37873;SDS011;23709;48.078;11.684;2022-12-08T15:05:37;52.35;;;24.30;;
37873;SDS011;23709;48.078;11.684;2022-12-08T15:08:09;51.03;;;24.07;;
37873;SDS011;23709;48.078;11.684;2022-12-08T15:10:43;44.15;;;22.10;;
37873;SDS011;23709;48.078;11.684;2022-12-08T15:13:19;47.50;;;22.83;;
37873;SDS011;23709;48.078;11.684;2022-12-08T15:15:53;42.35;;;21.85;;
37873;SDS011;23709;48.078;11.684;2022-12-08T15:18:38;42.33;;;21.13;;
37873;SDS011;23709;48.078;11.684;2022-12-08T15:21:11;45.33;;;22.37;;
37873;SDS011;23709;48.078;11.684;2022-12-08T15:23:44;46.58;;;22.40;;
37873;SDS011;23709;48.078;11.684;2022-12-08T15:26:21;46.10;;;21.95;;
37873;SDS011;23709;48.078;11.684;2022-12-08T15:28:55;53.97;;;22.38;;
37873;SDS011;23709;48.078;11.684;2022-12-08T15:31:27;43.90;;;23.45;;
37873;SDS011;23709;48.078;11.684;2022-12-08T15:33:59;44.08;;;22.45;;
37873;SDS011;23709;48.078;11.684;2022-12-08T15:36:31;43.03;;;21.92;;
37873;SDS011;23709;48.078;11.684;2022-12-08T15:39:05;47.15;;;23.05;;
37873;SDS011;23709;48.078;11.684;2022-12-08T15:41:44;44.67;;;22.08;;
37873;SDS011;23709;48.078;11.684;2022-12-08T15:44:16;44.97;;;22.80;;
37873;SDS011;23709;48.078;11.684;2022-12-08T15:46:48;46.45;;;22.55;;
37873;SDS011;23709;48.078;11.684;2022-12-08T15:49:21;50.70;;;22.60;;
37873;SDS011;23709;48.078;11.684;2022-12-08T15:51:54;52.38;;;22.35;;
37873;SDS011;23709;48.078;11.684;2022-12-08T15:54:41;44.25;;;21.73;;
37873;SDS011;23709;48.078;11.684;2022-12-08T15:57:24;46.10;;;21.60;;
37873;SDS011;23709;48.078;11.684;2022-12-08T16:03:22;46.50;;;22.70;;
37873;SDS011;23709;48.078;11.684;2022-12-08T16:06:16;42.28;;;20.88;;
37873;SDS011;23709;48.078;11.684;2022-12-08T16:09:21;41.42;;;21.10;;
37873;SDS011;23709;48.078;11.684;2022-12-08T16:11:59;48.45;;;22.58;;
37873;SDS011;23709;48.078;11.684;2022-12-08T16:14:50;47.95;;;23.63;;
37873;SDS011;23709;48.078;11.684;2022-12-08T16:17:42;48.63;;;23.10;;
37873;SDS011;23709;48.078;11.684;2022-12-08T16:20:14;48.80;;;22.75;;
37873;SDS011;23709;48.078;11.684;2022-12-08T16:22:49;46.28;;;21.70;;
37873;SDS011;23709;48.078;11.684;2022-12-08T16:25:38;50.22;;;22.95;;
37873;SDS011;23709;48.078;11.684;2022-12-08T16:28:31;49.83;;;23.20;;
37873;SDS011;23709;48.078;11.684;2022-12-08T16:31:23;53.67;;;24.50;;
37873;SDS011;23709;48.078;11.684;2022-12-08T16:33:55;52.13;;;23.27;;
37873;SDS011;23709;48.078;11.684;2022-12-08T16:36:27;54.28;;;23.50;;
37873;SDS011;23709;48.078;11.684;2022-12-08T16:38:59;52.20;;;23.60;;
37873;SDS011;23709;48.078;11.684;2022-12-08T16:41:31;47.20;;;22.20;;
37873;SDS011;23709;48.078;11.684;2022-12-08T16:44:22;47.50;;;22.67;;
37873;SDS011;23709;48.078;11.684;2022-12-08T16:46:54;46.38;;;22.58;;
37873;SDS011;23709;48.078;11.684;2022-12-08T16:49:27;48.70;;;23.02;;
37873;SDS011;23709;48.078;11.684;2022-12-08T16:51:59;57.97;;;24.35;;
37873;SDS011;23709;48.078;11.684;2022-12-08T16:54:31;51.25;;;24.25;;
37873;SDS011;23709;48.078;11.684;2022-12-08T16:57:03;61.10;;;24.80;;
37873;SDS011;23709;48.078;11.684;2022-12-08T16:59:36;56.50;;;25.40;;
37873;SDS011;23709;48.078;11.684;2022-12-08T17:02:09;52.40;;;24.65;;
37873;SDS011;23709;48.078;11.684;2022-12-08T17:04:46;60.20;;;26.45;;
37873;SDS011;23709;48.078;11.684;2022-12-08T17:07:19;60.42;;;26.23;;
37873;SDS011;23709;48.078;11.684;2022-12-08T17:09:51;52.55;;;24.88;;
37873;SDS011;23709;48.078;11.684;2022-12-08T17:12:23;57.70;;;25.67;;
37873;SDS011;23709;48.078;11.684;2022-12-08T17:14:56;45.17;;;23.15;;
37873;SDS011;23709;48.078;11.684;2022-12-08T17:17:28;51.17;;;23.67;;
37873;SDS011;23709;48.078;11.684;2022-12-08T17:20:01;62.03;;;24.67;;
37873;SDS011;23709;48.078;11.684;2022-12-08T17:22:36;54.20;;;25.38;;
37873;SDS011;23709;48.078;11.684;2022-12-08T17:25:09;68.03;;;29.70;;
37873;SDS011;23709;48.078;11.684;2022-12-08T17:27:42;52.67;;;25.92;;
37873;SDS011;23709;48.078;11.684;2022-12-08T17:30:14;64.35;;;27.90;;
37873;SDS011;23709;48.078;11.684;2022-12-08T17:32:48;56.72;;;25.80;;
37873;SDS011;23709;48.078;11.684;2022-12-08T17:35:20;54.65;;;26.40;;
37873;SDS011;23709;48.078;11.684;2022-12-08T17:37:53;53.07;;;25.03;;
37873;SDS011;23709;48.078;11.684;2022-12-08T17:40:25;60.80;;;28.92;;
37873;SDS011;23709;48.078;11.684;2022-12-08T17:45:31;64.95;;;29.30;;
37873;SDS011;23709;48.078;11.684;2022-12-08T17:48:03;60.00;;;27.57;;
37873;SDS011;23709;48.078;11.684;2022-12-08T17:50:36;68.63;;;30.55;;
37873;SDS011;23709;48.078;11.684;2022-12-08T17:53:13;64.22;;;30.88;;
37873;SDS011;23709;48.078;11.684;2022-12-08T17:55:52;68.05;;;30.15;;
37873;SDS011;23709;48.078;11.684;2022-12-08T17:58:26;69.03;;;33.50;;
37873;SDS011;23709;48.078;11.684;2022-12-08T18:00:58;82.15;;;36.42;;
37873;SDS011;23709;48.078;11.684;2022-12-08T18:03:30;79.22;;;35.83;;
37873;SDS011;23709;48.078;11.684;2022-12-08T18:06:07;89.82;;;42.58;;
37873;SDS011;23709;48.078;11.684;2022-12-08T18:08:42;94.97;;;43.80;;
37873;SDS011;23709;48.078;11.684;2022-12-08T18:11:16;84.20;;;41.43;;
37873;SDS011;23709;48.078;11.684;2022-12-08T18:13:50;82.78;;;36.00;;
37873;SDS011;23709;48.078;11.684;2022-12-08T18:16:24;80.05;;;36.90;;
37873;SDS011;23709;48.078;11.684;2022-12-08T18:18:57;79.18;;;34.45;;
37873;SDS011;23709;48.078;11.684;2022-12-08T18:21:30;106.78;;;46.45;;
37873;SDS011;23709;48.078;11.684;2022-12-08T18:24:03;85.43;;;41.60;;
37873;SDS011;23709;48.078;11.684;2022-12-08T18:26:35;74.80;;;35.55;;
37873;SDS011;23709;48.078;11.684;2022-12-08T18:29:07;64.25;;;32.58;;
37873;SDS011;23709;48.078;11.684;2022-12-08T18:31:39;71.93;;;32.22;;
37873;SDS011;23709;48.078;11.684;2022-12-08T18:34:11;61.97;;;30.95;;
37873;SDS011;23709;48.078;11.684;2022-12-08T18:36:43;65.43;;;30.02;;
37873;SDS011;23709;48.078;11.684;2022-12-08T18:39:19;67.60;;;32.42;;
37873;SDS011;23709;48.078;11.684;2022-12-08T18:41:53;82.80;;;38.88;;
37873;SDS011;23709;48.078;11.684;2022-12-08T18:44:26;91.93;;;42.08;;
37873;SDS011;23709;48.078;11.684;2022-12-08T18:46:59;75.55;;;35.47;;
37873;SDS011;23709;48.078;11.684;2022-12-08T18:49:31;80.85;;;38.33;;
37873;SDS011;23709;48.078;11.684;2022-12-08T18:52:03;74.84;;;34.84;;
37873;SDS011;23709;48.078;11.684;2022-12-08T18:54:36;87.57;;;41.65;;
37873;SDS011;23709;48.078;11.684;2022-12-08T18:57:29;92.22;;;44.45;;
37873;SDS011;23709;48.078;11.684;2022-12-08T19:00:02;89.03;;;42.22;;
37873;SDS011;23709;48.078;11.684;2022-12-08T19:02:37;89.93;;;44.95;;
37873;SDS011;23709;48.078;11.684;2022-12-08T19:07:43;115.47;;;53.42;;
37873;SDS011;23709;48.078;11.684;2022-12-08T19:10:16;91.57;;;45.92;;
37873;SDS011;23709;48.078;11.684;2022-12-08T19:12:49;114.70;;;53.45;;
37873;SDS011;23709;48.078;11.684;2022-12-08T19:15:22;107.30;;;51.75;;
37873;SDS011;23709;48.078;11.684;2022-12-08T19:17:54;111.47;;;54.55;;
37873;SDS011;23709;48.078;11.684;2022-12-08T19:20:27;106.22;;;52.75;;
37873;SDS011;23709;48.078;11.684;2022-12-08T19:22:59;115.45;;;57.42;;
37873;SDS011;23709;48.078;11.684;2022-12-08T19:25:31;110.55;;;55.08;;
37873;SDS011;23709;48.078;11.684;2022-12-08T19:28:03;111.30;;;54.97;;
37873;SDS011;23709;48.078;11.684;2022-12-08T19:30:36;109.05;;;54.83;;
37873;SDS011;23709;48.078;11.684;2022-12-08T19:33:08;109.68;;;54.97;;
37873;SDS011;23709;48.078;11.684;2022-12-08T19:35:40;109.15;;;54.28;;
37873;SDS011;23709;48.078;11.684;2022-12-08T19:38:21;109.57;;;54.13;;
37873;SDS011;23709;48.078;11.684;2022-12-08T19:40:53;110.22;;;54.80;;
37873;SDS011;23709;48.078;11.684;2022-12-08T19:43:44;104.30;;;52.05;;
37873;SDS011;23709;48.078;11.684;2022-12-08T19:46:35;106.13;;;52.50;;
37873;SDS011;23709;48.078;11.684;2022-12-08T19:49:11;105.63;;;51.75;;
37873;SDS011;23709;48.078;11.684;2022-12-08T19:51:43;110.20;;;52.25;;
37873;SDS011;23709;48.078;11.684;2022-12-08T19:54:15;111.45;;;54.90;;
37873;SDS011;23709;48.078;11.684;2022-12-08T19:56:48;118.88;;;58.10;;
37873;SDS011;23709;48.078;11.684;2022-12-08T19:59:20;115.63;;;56.17;;
37873;SDS011;23709;48.078;11.684;2022-12-08T20:01:53;125.60;;;62.05;;
37873;SDS011;23709;48.078;11.684;2022-12-08T20:06:58;111.28;;;55.63;;
37873;SDS011;23709;48.078;11.684;2022-12-08T20:09:30;111.40;;;54.95;;
37873;SDS011;23709;48.078;11.684;2022-12-08T20:12:03;114.97;;;55.90;;
37873;SDS011;23709;48.078;11.684;2022-12-08T20:14:35;114.72;;;54.80;;
37873;SDS011;23709;48.078;11.684;2022-12-08T20:17:15;114.57;;;55.92;;
37873;SDS011;23709;48.078;11.684;2022-12-08T20:19:48;105.20;;;56.00;;
37873;SDS011;23709;48.078;11.684;2022-12-08T20:22:20;111.53;;;56.03;;
37873;SDS011;23709;48.078;11.684;2022-12-08T20:24:52;120.80;;;62.15;;
37873;SDS011;23709;48.078;11.684;2022-12-08T20:27:31;107.57;;;55.72;;
37873;SDS011;23709;48.078;11.684;2022-12-08T20:30:04;110.43;;;55.58;;
37873;SDS011;23709;48.078;11.684;2022-12-08T20:32:43;101.15;;;53.90;;
37873;SDS011;23709;48.078;11.684;2022-12-08T20:37:47;98.85;;;48.42;;
37873;SDS011;23709;48.078;11.684;2022-12-08T20:40:19;93.28;;;48.47;;
37873;SDS011;23709;48.078;11.684;2022-12-08T20:42:52;91.78;;;45.80;;
37873;SDS011;23709;48.078;11.684;2022-12-08T20:45:24;87.60;;;45.13;;
37873;SDS011;23709;48.078;11.684;2022-12-08T20:47:56;82.68;;;43.10;;
37873;SDS011;23709;48.078;11.684;2022-12-08T20:50:28;93.50;;;45.08;;
37873;SDS011;23709;48.078;11.684;2022-12-08T20:53:00;88.28;;;43.75;;
37873;SDS011;23709;48.078;11.684;2022-12-08T20:55:32;83.18;;;41.40;;
37873;SDS011;23709;48.078;11.684;2022-12-08T20:58:05;81.82;;;41.40;;
37873;SDS011;23709;48.078;11.684;2022-12-08T21:00:37;88.40;;;41.97;;
37873;SDS011;23709;48.078;11.684;2022-12-08T21:03:10;86.40;;;40.03;;
37873;SDS011;23709;48.078;11.684;2022-12-08T21:05:50;82.22;;;43.67;;
37873;SDS011;23709;48.078;11.684;2022-12-08T21:08:22;98.60;;;45.70;;
37873;SDS011;23709;48.078;11.684;2022-12-08T21:10:56;80.85;;;41.97;;
37873;SDS011;23709;48.078;11.684;2022-12-08T21:13:28;91.82;;;43.65;;
37873;SDS011;23709;48.078;11.684;2022-12-08T21:16:00;104.22;;;49.50;;
